Terminal Aerodrome Forecast
Issued by NWS Houston/Galveston TX

Home | Current Version | Previous Version | Text Only | Print | Product List | Glossary On
Versions: 1 2 3 4 5 6 7 8 9 10 11 12 13 14 15 16 17 18 19 20 21 22 23 24 25 26 27 28 29 30 31 32 33 34 35 36 37 38 39 40 41 42 43 44 45 46 47 48 49 50
065
FTUS44 KHGX 191459 AAA
TAFHOU
TAF AMD
KHOU 191459Z 1915/2012 17007KT P6SM SCT015 SCT025
     FM191800 17008KT P6SM VCSH BKN040 BKN250
     FM192300 16007KT P6SM SCT035 BKN250
     FM200300 16004KT P6SM SCT015=

USA.gov is the U.S. government's official web portal to all federal, state and local government web resources and services.